Polarstern — DBLK — position and weather

sailwx.info

Track history (hours):
 
Tides and Currents Weather Stations Pressure Air Temp Water Temp Dewpoint Dewpoint Depression Visibility Wind Speed Wind Dir Waves Ship Positions

Oceanographic research ship Polarstern (Germany)

Detailed information on ship capabilities available from University of Delaware's Ocean Information Center and ARCUS's ALIAS (Arctic Logistics Information and Support) project.

Last reported at 2015-Jul-03 01:00 UTC. Time now 2015-Jul-03 02:41 UTC.
Position N 80°48' W 009°36'.

Length 117.9 m; beam 25 m; draft 10.7 m.

MMSI: 211202460.

Wind from 200 at 6 knots

Barometer 1020.3 mb
Air temperature 0.3 ° C
Dewpoint 0.3 ° C
Water temperature -0.0 ° C

Date/timePositionNaut miles runAvg speedWind from/ knotsBaromVisibWave heightAir tempDewpointWater temp
2015-Jul-03 01:00N 80°48' W 009°36'4 3.8 200 / 61020.3 0.3 0.3-0.0
2015-Jul-03 00:00N 80°48' W 010°00'7 7.1 190 / 61020.3 0.3 0.3 0.2
2015-Jul-02 23:00N 80°42' W 010°24'7 6.7 170 / 41020.2 0.1-0.1-0.1
2015-Jul-02 22:00N 80°36' W 010°42'7 6.9 190 / 61020.0 0.9 0.9-0.2
2015-Jul-02 21:00N 80°36' W 010°00'9 9.1 220 / 41020.0 0.4 0.4-1.4
2015-Jul-02 20:00N 80°30' W 009°18'5 5.0 330 / 41019.9 0.6-0.0 0.2
2015-Jul-02 19:00N 80°30' W 008°48'7 7.2 310 / 21019.6 0.4-0.0-0.1
2015-Jul-02 18:00N 80°24' W 008°24'6 6.0 330 / 41019.410.8 0.3-0.0-1.2
2015-Jul-02 17:00N 80°30' W 008°24'0 0.0 340 / 41019.4 0.2-0.6-1.2
2015-Jul-02 16:00N 80°30' W 008°24'8 7.8 340 / 61019.3 -0.0-0.3-1.3
2015-Jul-02 15:00N 80°24' W 007°54'5 5.0 300 / 81019.010.8 -0.2-0.4-1.0
2015-Jul-02 14:00N 80°24' W 007°24'5 5.0 300 / 81018.7 -0.1-0.4 0.3
2015-Jul-02 13:00N 80°24' W 006°54'1 1.0 310 / 81018.7 -0.1-0.5-1.2
2015-Jul-02 12:00N 80°24' W 007°00'0 0.0 300 / 61018.710.8 -0.1-0.5-1.5
2015-Jul-02 11:00N 80°24' W 007°00'6 6.0 310 / 61018.7 -0.2-0.2-1.3
2015-Jul-02 10:00N 80°18' W 007°00'5 5.1 330 / 61018.2 -0.0-0.5-0.3
2015-Jul-02 09:00N 80°18' W 006°30'2 2.0 330 / 41017.910.8 -0.0-0.1-1.6
2015-Jul-02 08:00N 80°18' W 006°18'0 0.0 330 / 61017.6 -0.0-0.0-1.6
2015-Jul-02 07:00N 80°18' W 006°18'2 2.0 320 / 61017.2 -0.0-0.0-1.6
2015-Jul-02 06:00N 80°18' W 006°06'7 7.2 340 / 61016.9 5.4 0.1 0.1-1.5
2015-Jul-02 05:00N 80°12' W 005°42'7 7.3 340 / 61016.5 -0.0-0.0-1.0
2015-Jul-02 04:00N 80°06' W 005°18'4 4.1 320 / 101016.4 -0.1-0.2-1.2
2015-Jul-02 03:00N 80°06' W 004°54'7 6.8 300 / 121016.0 -0.5-0.5-0.7
2015-Jul-02 02:00N 80°00' W 004°36'8 8.0 290 / 101016.0 -1.0-1.0-0.4
2015-Jul-02 01:00N 79°54' W 004°06'4 4.2 260 / 101015.5 -1.4-1.4-1.4
2015-Jul-02 00:00N 79°54' W 003°42'7 7.3 270 / 101015.4 -1.8-1.8-0.8
2015-Jul-01 23:00N 79°48' W 003°18'7 6.8 250 / 81015.8 -2.4-2.5-1.2
2015-Jul-01 22:00N 79°42' W 003°00'4 4.3 280 / 81015.7 -2.7-2.7-1.5
2015-Jul-01 21:00N 79°42' W 002°36'14 3.5 270 / 81015.4 -1.9-1.9-1.3
2015-Jul-01 17:00N 79°42' W 001°18'1 1.1 280 / 41014.9 -1.5-2.1-1.5
2015-Jul-01 16:00N 79°42' W 001°12'1 1.1 300 / 61015.2 -1.5-1.6-1.4
2015-Jul-01 15:00N 79°42' W 001°06'7 7.4 240 / 61014.9 5.4 -1.0-1.0-1.4
2015-Jul-01 14:00N 79°36' W 000°42'3 3.2 250 / 41015.2 -1.1-1.1-1.4
2015-Jul-01 13:00N 79°36' W 000°24'4 4.3 230 / 81015.5 -1.0-1.0-1.4
2015-Jul-01 12:00N 79°36' E 000°00'7 6.8 220 / 81016.0 2.2 -0.8-0.8-1.6
2015-Jul-01 11:00N 79°30' E 000°18'4 4.4 210 / 101016.0 -0.6-0.6-1.6
2015-Jul-01 10:00N 79°30' E 000°42'3 1.6 230 / 101016.2 -0.4-0.4-1.6
2015-Jul-01 08:00N 79°30' E 001°00'8 8.1 210 / 141016.1 0.2 0.2-0.9
2015-Jul-01 07:00N 79°24' E 001°30'7 6.6 200 / 141016.4 -0.0-0.0-0.8
2015-Jul-01 06:00N 79°24' E 002°06'4 4.4 220 / 141017.0 5.4 -0.0-0.0-1.0
2015-Jul-01 05:00N 79°24' E 002°30'9 9.0 220 / 251017.1 0.8-0.2-0.2
2015-Jul-01 04:00N 79°18' E 003°06'8 7.8 220 / 211017.1 0.1 0.1 2.5
2015-Jul-01 03:00N 79°18' E 003°48'10 9.9 210 / 171017.5 1.3 0.9 0.4
2015-Jul-01 02:00N 79°12' E 004°30'2 2.2 220 / 171018.2 1.3 0.6 2.2
2015-Jul-01 01:00N 79°12' E 004°42'0 0.0 230 / 211018.4 2.2 1.1 5.7
2015-Jul-01 00:00N 79°12' E 004°42'0 0.0 230 / 191018.5 2.4 0.8 5.8
2015-Jun-30 23:00N 79°12' E 004°42'0 0.0 220 / 211018.6 3.6 1.1 5.8
2015-Jun-30 22:00N 79°12' E 004°42'1 1.1 210 / 211018.7 3.8 1.4 5.8
2015-Jun-30 21:00N 79°12' E 004°36'8 8.2 210 / 191018.4 3.8 0.9 6.0
2015-Jun-30 20:00N 79°06' E 005°06'2110.4 220 / 161019.1 3.3 0.5 6.1
2015-Jun-30 18:00N 78°48' E 006°00'0 0.0 280 / 81020.227.0 0.5 3.3-0.4 5.9
2015-Jun-30 17:00N 78°48' E 006°00'0 0.0 300 / 101020.1 2.8-1.5 6.1
2015-Jun-30 16:00N 78°48' E 006°00'0 0.0 310 / 101020.2 2.7-0.2 6.1
2015-Jun-30 15:00N 78°48' E 006°00'1 1.2 310 / 101020.3 2.7 0.8 6.0
2015-Jun-30 14:00N 78°48' E 006°06'1010.5 320 / 101019.9 2.4 1.1 6.1
2015-Jun-30 13:00N 78°48' E 007°00'0 0.0 350 / 101019.7 2.0 0.5 6.0
2015-Jun-30 12:00N 78°48' E 007°00'6 5.8 340 / 121019.710.8 0.5 2.1 1.2 6.4
2015-Jun-30 11:00N 78°48' E 007°30'6 5.8 340 / 141019.1 2.2 0.9 6.4
2015-Jun-30 10:00N 78°48' E 008°00'0 0.0 340 / 161019.1 2.9 1.5 6.4
2015-Jun-30 09:00N 78°48' E 008°00'8 8.2 350 / 141019.010.8 1.0 2.7 1.5 6.4
2015-Jun-30 08:00N 78°48' E 008°42'0 0.0 350 / 171018.5 2.3 1.0 5.4
2015-Jun-30 07:00N 78°48' E 008°42'0 0.0 340 / 171018.3 2.4 1.2 5.4
2015-Jun-30 06:00N 78°48' E 008°42'26 4.4 340 / 191017.910.8 1.0 2.5 1.2 5.6
2015-Jun-30 00:00N 78°54' E 006°30'9 9.2 350 / 141019.9 0.6-0.6 5.8
2015-Jun-29 23:00N 78°54' E 007°18'1111.1 340 / 141019.5 1.3-0.8 5.7
2015-Jun-29 22:00N 78°48' E 008°06'18 8.8 340 / 161019.1 2.2-0.9 6.4
2015-Jun-29 20:00N 78°36' E 009°12'1313.4 360 / 141018.7 3.1-0.5 5.9
2015-Jun-29 19:00N 78°24' E 009°42'17 8.5 340 / 121018.6 3.7 0.4 5.6
2015-Jun-29 17:00N 78°12' E 010°42'1413.5 340 / 81018.6 3.6-0.3 5.7
2015-Jun-29 16:00N 78°00' E 011°12'20 9.8 310 / 81018.8 3.7-2.5 6.2
2015-Jun-29 14:00N 78°06' E 012°42'10 9.9 280 / 61018.7 3.4-2.4 4.6
2015-Jun-29 13:00N 78°06' E 013°30'1110.5 100 / 61018.7 3.3-1.5 4.4
2015-Jun-29 12:00N 78°12' E 014°12'10 9.8 020 / 41018.510.8 3.0-2.2 5.0
2015-Jun-29 11:00N 78°12' E 015°00'7 7.4 350 / 41018.4 2.7-3.1 4.8
2015-Jun-29 10:00N 78°12' E 015°36'0 0.0 330 / 41018.2 3.0-4.5 3.1
2015-Jun-29 09:00N 78°12' E 015°36'0 0.0 130 / 41018.110.8 2.8-4.3 2.9
2015-Jun-29 08:00N 78°12' E 015°36'0 0.0 130 / 81017.9 2.7-4.9 3.1
2015-Jun-29 06:00N 78°12' E 015°36'0 0.0 130 / 161017.610.8 0.5 2.1-4.9 3.2
2015-Jun-29 05:00N 78°12' E 015°36'0 0.0 130 / 171017.5 2.1-4.2 3.3
2015-Jun-29 04:00N 78°12' E 015°36'0 0.0 140 / 161017.5 2.2-3.5 3.2
2015-Jun-29 03:00N 78°12' E 015°36'0 0.0 140 / 141017.7 2.1-3.6 3.4
2015-Jun-29 02:00N 78°12' E 015°36'0 0.0 140 / 141017.8 2.0-3.7 3.6
2015-Jun-29 01:00N 78°12' E 015°36'0 0.0 140 / 161017.8 1.9-3.8 3.6
2015-Jun-29 00:00N 78°12' E 015°36'0 0.0 140 / 141017.8 2.1-3.6 3.7
2015-Jun-28 23:00N 78°12' E 015°36'0 0.0 140 / 161017.9 2.2-3.8 3.7
2015-Jun-28 22:00N 78°12' E 015°36'0 0.0 130 / 161017.5 2.4-3.6 3.7
2015-Jun-28 21:00N 78°12' E 015°36'0 0.0 120 / 171017.4 2.7-4.8 3.7
2015-Jun-28 20:00N 78°12' E 015°36'0 0.0 140 / 161017.4 2.5-3.4 4.0
2015-Jun-28 19:00N 78°12' E 015°36'0 0.0 140 / 141017.2 2.4-3.0 3.9
2015-Jun-28 18:00N 78°12' E 015°36'0 0.0 150 / 141017.0 2.9-3.4 4.2
2015-Jun-28 17:00N 78°12' E 015°36'0 0.0 140 / 171016.7 3.0-2.8 4.2
2015-Jun-28 16:00N 78°12' E 015°36'0 0.0 140 / 161016.6 3.4-2.9 4.0
2015-Jun-28 15:00N 78°12' E 015°36'0 0.0 140 / 161016.4 3.6-3.0 4.0
2015-Jun-28 14:00N 78°12' E 015°36'0 0.0 140 / 161016.3 3.7-2.9 4.1
2015-Jun-28 13:00N 78°12' E 015°36'0 0.0 140 / 171016.0 3.6-2.2 4.0
2015-Jun-28 12:00N 78°12' E 015°36'0 0.0 140 / 191015.710.8 0.5 3.4-2.1 3.9
2015-Jun-28 11:00N 78°12' E 015°36'0 0.0 140 / 171015.5 3.5-2.1 4.0
2015-Jun-28 10:00N 78°12' E 015°36'0 0.0 140 / 171015.2 3.4-2.0 4.0
2015-Jun-28 09:00N 78°12' E 015°36'0 0.0 140 / 191014.910.8 0.5 3.3-1.9 4.0
2015-Jun-28 08:00N 78°12' E 015°36'0 0.0 140 / 171014.4 3.3-1.7 4.0
2015-Jun-28 07:00N 78°12' E 015°36'0 0.0 140 / 171014.2 3.4-1.8 4.2
2015-Jun-28 06:00N 78°12' E 015°36'7 7.4 140 / 191013.610.8 0.5 3.5-1.3 4.2
2015-Jun-28 05:00N 78°12' E 015°00'6 6.1 080 / 161013.3 4.0-0.8 4.9
2015-Jun-28 04:00N 78°12' E 014°30'6 6.1 040 / 161012.7 3.9-0.3 5.2
2015-Jun-28 03:00N 78°12' E 014°00'8 7.8 040 / 191012.4 4.0 0.4 4.1
2015-Jun-28 02:00N 78°06' E 013°36'7 7.4 040 / 211012.1 3.7 1.1 4.3
2015-Jun-28 01:00N 78°06' E 013°00'9 8.6 060 / 121012.1 3.9 1.9 5.5
2015-Jun-28 00:00N 78°00' E 012°30'7 7.5 120 / 61012.2 3.8 1.7 5.5
2015-Jun-27 23:00N 78°00' E 011°54'10 9.6 020 / 61011.8 4.0 2.5 5.7
2015-Jun-27 22:00N 78°06' E 011°18'6 6.2 030 / 41011.8 4.1 1.9 5.8
2015-Jun-27 21:00N 78°06' E 010°48'7 7.4 090 / 41011.5 4.1 2.0 6.0
2015-Jun-27 20:00N 78°06' E 010°12'10 9.5 360 / 121011.3 4.4 3.1 5.9
2015-Jun-27 19:00N 78°12' E 009°36'6 6.0 360 / 101011.4 5.4 3.5 6.0
2015-Jun-27 18:00N 78°18' E 009°36'6 6.1 340 / 101011.510.8 0.5 3.9 1.7 5.0
2015-Jun-27 17:00N 78°24' E 009°30'6 6.0 340 / 101011.4 3.5 1.1 4.7
2015-Jun-27 16:00N 78°30' E 009°30'1212.1 340 / 81011.5 3.3 0.3 6.3
2015-Jun-27 15:00N 78°42' E 009°24'6 6.0 340 / 61011.5 3.1 0.4 6.1
2015-Jun-27 14:00N 78°48' E 009°24'6 6.1 360 / 61011.5 3.2 0.9 5.5
2015-Jun-27 13:00N 78°54' E 009°18'6 6.0 320 / 61011.5 2.4 1.0 6.3
2015-Jun-27 12:00N 79°00' E 009°18'6 6.1 290 / 101011.3 2.2 2.1 2.0 5.6
2015-Jun-27 11:00N 79°06' E 009°12'24 8.0 300 / 81011.2 2.5 2.3 5.5
2015-Jun-27 08:00N 79°30' E 009°00'20 6.8 340 / 101010.9 2.9 2.2 5.2
2015-Jun-27 05:00N 79°48' E 009°54'2211.0 090 / 81011.3 3.4 1.9 6.2
2015-Jun-27 03:00N 80°06' E 011°06'1 1.0 100 / 101012.3 1.6 0.6 5.8
2015-Jun-27 02:00N 80°06' E 011°12'8 7.9 100 / 101012.7 1.6 0.8 5.7
2015-Jun-27 01:00N 80°00' E 010°42'2 1.0 100 / 81012.7 2.1 0.4 5.7
2015-Jun-26 23:00N 80°00' E 010°30'9 4.3 080 / 61013.1 2.3 1.3 5.7
2015-Jun-26 21:00N 80°06' E 011°06'7 7.3 050 / 61013.3 1.1-0.1 5.6
2015-Jun-26 20:00N 80°00' E 010°42'8 8.0 070 / 61013.5 2.0 0.4 5.9
2015-Jun-26 19:00N 79°54' E 010°12'6 6.4 060 / 41013.4 2.4 0.5 5.9
2015-Jun-26 18:00N 80°00' E 010°24'8 7.9 100 / 41013.710.8 2.1 0.5 5.8
2015-Jun-26 17:00N 80°06' E 010°54'2 2.1 090 / 41014.2 1.3 0.2 6.0
2015-Jun-26 16:00N 80°06' E 011°06'10 5.1 070 / 61014.5 0.8-0.4 5.4
2015-Jun-26 14:00N 80°00' E 010°18'7 7.3 050 / 61014.6 1.6 0.3 5.6
2015-Jun-26 13:00N 79°54' E 009°54'6 6.1 080 / 61014.7 2.0 0.8 5.5
2015-Jun-26 12:00N 80°00' E 010°00'1 1.0 060 / 61014.910.8 2.0 0.5 5.8
2015-Jun-26 11:00N 80°00' E 010°06'2 2.1 060 / 81014.8 1.4-0.1 5.4
2015-Jun-26 10:00N 80°00' E 009°54'9 9.4 070 / 61015.1 1.4 0.1 5.6
2015-Jun-26 09:00N 80°06' E 010°36'10 5.1 070 / 61014.910.8 0.9-0.2 5.5
2015-Jun-26 07:00N 80°00' E 009°48'6 6.1 080 / 81014.7 2.5-0.5 5.4
2015-Jun-26 06:00N 80°06' E 009°54'6 6.2 100 / 41015.010.8 2.6-0.4 5.3
2015-Jun-26 05:00N 80°06' E 010°30'0 0.0 100 / 61015.0 2.1-0.2 5.2
2015-Jun-26 04:00N 80°06' E 010°30'7 7.2 100 / 61014.6 2.1 0.1 5.6
2015-Jun-26 03:00N 80°06' E 009°48'5 5.2 100 / 81014.5 3.0-0.2 5.5
2015-Jun-26 02:00N 80°06' E 009°18'7 7.2 150 / 41014.8 3.2-0.1 5.4
2015-Jun-26 01:00N 80°06' E 010°00'9 9.4 110 / 61014.9 3.3 0.2 5.5
2015-Jun-26 00:00N 80°12' E 010°42'7 7.2 090 / 61015.2 2.7 0.4 5.1
2015-Jun-25 23:00N 80°18' E 010°18'7 7.1 090 / 81015.2 2.8 0.1 3.4
2015-Jun-25 22:00N 80°18' E 009°36'3 3.0 100 / 101015.4 2.8 0.4 1.8
2015-Jun-25 21:00N 80°18' E 009°54'6 6.1 110 / 81015.4 2.6 0.7 4.4
2015-Jun-25 20:00N 80°18' E 010°30'7 7.1 090 / 101015.5 3.1 1.0 5.5
2015-Jun-25 19:00N 80°18' E 009°48'7 7.1 060 / 101015.7 1.6 1.0 4.6
2015-Jun-25 18:00N 80°18' E 009°06'6 6.1 080 / 121015.810.8 0.7-0.2 2.8
2015-Jun-25 17:00N 80°12' E 009°00'4 2.0 110 / 81016.2 1.8 0.6 0.4
2015-Jun-25 15:00N 80°12' E 008°36'2 2.0 080 / 81016.310.8 2.2 1.5-0.5
2015-Jun-25 14:00N 80°12' E 008°24'13 6.3 090 / 81016.5 2.1 2.0-0.3
2015-Jun-25 12:00N 80°18' E 009°30'6 6.1 110 / 81016.6 1.1 1.9 1.8 1.5
2015-Jun-25 11:00N 80°12' E 009°36'5 5.1 100 / 81016.6 2.0 2.0 0.5
2015-Jun-25 10:00N 80°12' E 009°06'8 7.9 060 / 61016.6 1.7 1.7 1.8
2015-Jun-25 09:00N 80°06' E 008°36'9 4.3 050 / 81016.6 5.4 1.4 1.3-0.4
2015-Jun-25 07:00N 80°12' E 009°12'6 6.1 070 / 61016.5 2.0 1.7 2.3
2015-Jun-25 06:00N 80°12' E 009°48'1 1.0 040 / 21016.7 1.1 2.0 1.5 1.8
2015-Jun-25 05:00N 80°12' E 009°54'7 7.1 310 / 21016.7 2.4 1.5 2.2
2015-Jun-25 04:00N 80°12' E 009°12'9 9.4 010 1017.0 1.6 0.3 3.4
2015-Jun-25 03:00N 80°06' E 008°30'20 5.1 040 / 81017.0 0.1-0.0 3.1
2015-Jun-24 23:00N 80°12' E 010°24'9 9.4 050 / 81017.8 2.4 2.1 4.4
2015-Jun-24 22:00N 80°06' E 009°42'7 7.2 030 / 101017.8 0.9 0.8 3.3
2015-Jun-24 21:00N 80°06' E 009°00'9 9.4 020 / 121018.0 -0.0-0.0 5.0
2015-Jun-24 20:00N 80°00' E 008°18'6 6.3 010 / 101018.2 -0.6-0.9 4.7
2015-Jun-24 19:00N 80°00' E 007°42'1 1.0 010 / 81018.4 -0.9-0.9 5.2
2015-Jun-24 18:00N 80°00' E 007°48'7 7.3 050 / 81018.3 0.3 -0.4-0.4 4.7
2015-Jun-24 17:00N 80°00' E 008°30'9 8.6 010 / 81018.6 -0.3-0.4 5.4
2015-Jun-24 16:00N 80°06' E 009°06'15 7.3 020 / 101018.5 -0.1-0.6 4.7
2015-Jun-24 14:00N 80°12' E 010°24'6 6.1 020 / 81019.1 0.9 0.4 4.6
2015-Jun-24 13:00N 80°12' E 011°00'19 9.6 020 / 81019.1 0.8 0.5 5.2
2015-Jun-24 11:00N 80°18' E 009°12'12 6.1 050 / 61019.6 -1.4-1.4 3.1
2015-Jun-24 09:00N 80°30' E 009°00'6 6.1 280 / 21019.510.8 -1.6-3.5-1.3
2015-Jun-24 08:00N 80°36' E 009°06'1 1.0 310 / 21019.3 -1.7-3.9-1.5
2015-Jun-24 07:00N 80°36' E 009°00'1 1.0 330 / 21019.3 -1.8-4.0-1.1
2015-Jun-24 06:00N 80°36' E 008°54'6 6.3 240 / 41019.210.8 -2.1-4.3-1.6
2015-Jun-24 05:00N 80°42' E 008°42'3 2.9 270 / 21019.3 -1.7-4.5-1.6
2015-Jun-24 04:00N 80°42' E 008°24'1 1.0 240 / 41019.0 -1.8-4.0-1.6
2015-Jun-24 03:00N 80°42' E 008°30'6 6.1 200 / 41019.0 -1.9-2.8-1.6
2015-Jun-24 02:00N 80°48' E 008°36'1 1.0 270 / 41019.0 -1.8-3.5-1.6
2015-Jun-24 01:00N 80°48' E 008°42'1 1.0 240 / 41019.0 -2.1-3.1-1.6
2015-Jun-24 00:00N 80°48' E 008°48'6 6.3 250 / 81018.9 -1.8-3.4-1.6
2015-Jun-23 23:00N 80°54' E 008°36'2 1.9 260 / 61018.9 -1.5-2.9-1.7
2015-Jun-23 22:00N 80°54' E 008°24'0 0.0 230 / 61018.6 -1.6-2.5-1.7
2015-Jun-23 21:00N 80°54' E 008°24'6 6.0 240 / 81018.1 -0.9-3.2-1.7
2015-Jun-23 20:00N 81°00' E 008°24'0 0.0 240 / 81018.0 -1.0-1.9-1.7
2015-Jun-23 19:00N 81°00' E 008°24'1 0.5 240 / 81017.8 -1.0-1.4-1.7
2015-Jun-23 17:00N 81°00' E 008°18'0 0.0 220 / 141017.4 -0.4-0.5-1.7
2015-Jun-23 16:00N 81°00' E 008°18'0 0.0 210 / 121017.3 0.1-0.4-1.7
2015-Jun-23 15:00N 81°00' E 008°18'0 0.0 210 / 141017.7 5.4 0.2-0.0-1.6
2015-Jun-23 14:00N 81°00' E 008°18'0 0.0 210 / 101017.9 0.5 0.3-1.7
2015-Jun-23 13:00N 81°00' E 008°18'1 0.9 210 / 141018.2 0.7 0.7-1.7
2015-Jun-23 12:00N 81°00' E 008°12'0 0.0 180 / 141018.5 5.4 1.0 0.9-1.7
2015-Jun-23 11:00N 81°00' E 008°12'0 0.0 190 / 141018.8 1.1 0.8-1.6
2015-Jun-23 10:00N 81°00' E 008°12'1 0.9 180 / 141018.8 0.9 0.7-1.7
2015-Jun-23 09:00N 81°00' E 008°06'6 3.0 180 / 141019.010.8 0.8 0.4-1.7
2015-Jun-23 07:00N 81°06' E 008°06'0 0.0 210 / 121019.3 -0.1-0.1-1.8
2015-Jun-23 06:00N 81°06' E 008°06'1 0.9 230 / 141019.210.8 -0.1-0.1-1.7
2015-Jun-23 05:00N 81°06' E 008°00'1 0.9 200 / 141019.3 -0.6-0.6-1.8
2015-Jun-23 04:00N 81°06' E 007°54'0 0.0 200 / 161019.6 -0.3-0.3-1.7
2015-Jun-23 03:00N 81°06' E 007°54'1 0.9 190 / 141019.7 0.2 0.2-1.8
2015-Jun-23 02:00N 81°06' E 008°00'   200 / 161020.5 0.8 0.8-1.8
Track history (hours):
 
Tides and Currents Weather Stations Pressure Air Temp Water Temp Dewpoint Dewpoint Depression Visibility Wind Speed Wind Dir Waves Ship Positions

Oceanographic research ship Polarstern (Germany)

Detailed information on ship capabilities available from University of Delaware's Ocean Information Center and ARCUS's ALIAS (Arctic Logistics Information and Support) project.

Last reported at 2015-Jul-03 01:00 UTC. Time now 2015-Jul-03 02:41 UTC.
Position N 80°48' W 009°36'.

Length 117.9 m; beam 25 m; draft 10.7 m.

MMSI: 211202460.

Wind from 200 at 6 knots

Barometer 1020.3 mb
Air temperature 0.3 ° C
Dewpoint 0.3 ° C
Water temperature -0.0 ° C

Date/timePositionNaut miles runAvg speedWind from/ knotsBaromVisibWave heightAir tempDewpointWater temp
2015-Jul-03 01:00N 80°48' W 009°36'4 3.8 200 / 61020.3 0.3 0.3-0.0
2015-Jul-03 00:00N 80°48' W 010°00'7 7.1 190 / 61020.3 0.3 0.3 0.2
2015-Jul-02 23:00N 80°42' W 010°24'7 6.7 170 / 41020.2 0.1-0.1-0.1
2015-Jul-02 22:00N 80°36' W 010°42'7 6.9 190 / 61020.0 0.9 0.9-0.2
2015-Jul-02 21:00N 80°36' W 010°00'9 9.1 220 / 41020.0 0.4 0.4-1.4
2015-Jul-02 20:00N 80°30' W 009°18'5 5.0 330 / 41019.9 0.6-0.0 0.2
2015-Jul-02 19:00N 80°30' W 008°48'7 7.2 310 / 21019.6 0.4-0.0-0.1
2015-Jul-02 18:00N 80°24' W 008°24'6 6.0 330 / 41019.410.8 0.3-0.0-1.2
2015-Jul-02 17:00N 80°30' W 008°24'0 0.0 340 / 41019.4 0.2-0.6-1.2
2015-Jul-02 16:00N 80°30' W 008°24'8 7.8 340 / 61019.3 -0.0-0.3-1.3
2015-Jul-02 15:00N 80°24' W 007°54'5 5.0 300 / 81019.010.8 -0.2-0.4-1.0
2015-Jul-02 14:00N 80°24' W 007°24'5 5.0 300 / 81018.7 -0.1-0.4 0.3
2015-Jul-02 13:00N 80°24' W 006°54'1 1.0 310 / 81018.7 -0.1-0.5-1.2
2015-Jul-02 12:00N 80°24' W 007°00'0 0.0 300 / 61018.710.8 -0.1-0.5-1.5
2015-Jul-02 11:00N 80°24' W 007°00'6 6.0 310 / 61018.7 -0.2-0.2-1.3
2015-Jul-02 10:00N 80°18' W 007°00'5 5.1 330 / 61018.2 -0.0-0.5-0.3
2015-Jul-02 09:00N 80°18' W 006°30'2 2.0 330 / 41017.910.8 -0.0-0.1-1.6
2015-Jul-02 08:00N 80°18' W 006°18'0 0.0 330 / 61017.6 -0.0-0.0-1.6
2015-Jul-02 07:00N 80°18' W 006°18'2 2.0 320 / 61017.2 -0.0-0.0-1.6
2015-Jul-02 06:00N 80°18' W 006°06'7 7.2 340 / 61016.9 5.4 0.1 0.1-1.5
2015-Jul-02 05:00N 80°12' W 005°42'7 7.3 340 / 61016.5 -0.0-0.0-1.0
2015-Jul-02 04:00N 80°06' W 005°18'4 4.1 320 / 101016.4 -0.1-0.2-1.2
2015-Jul-02 03:00N 80°06' W 004°54'7 6.8 300 / 121016.0 -0.5-0.5-0.7
2015-Jul-02 02:00N 80°00' W 004°36'8 8.0 290 / 101016.0 -1.0-1.0-0.4
2015-Jul-02 01:00N 79°54' W 004°06'4 4.2 260 / 101015.5 -1.4-1.4-1.4
2015-Jul-02 00:00N 79°54' W 003°42'7 7.3 270 / 101015.4 -1.8-1.8-0.8
2015-Jul-01 23:00N 79°48' W 003°18'7 6.8 250 / 81015.8 -2.4-2.5-1.2
2015-Jul-01 22:00N 79°42' W 003°00'4 4.3 280 / 81015.7 -2.7-2.7-1.5
2015-Jul-01 21:00N 79°42' W 002°36'14 3.5 270 / 81015.4 -1.9-1.9-1.3
2015-Jul-01 17:00N 79°42' W 001°18'1 1.1 280 / 41014.9 -1.5-2.1-1.5
2015-Jul-01 16:00N 79°42' W 001°12'1 1.1 300 / 61015.2 -1.5-1.6-1.4
2015-Jul-01 15:00N 79°42' W 001°06'7 7.4 240 / 61014.9 5.4 -1.0-1.0-1.4
2015-Jul-01 14:00N 79°36' W 000°42'3 3.2 250 / 41015.2 -1.1-1.1-1.4
2015-Jul-01 13:00N 79°36' W 000°24'4 4.3 230 / 81015.5 -1.0-1.0-1.4
2015-Jul-01 12:00N 79°36' E 000°00'7 6.8 220 / 81016.0 2.2 -0.8-0.8-1.6
2015-Jul-01 11:00N 79°30' E 000°18'4 4.4 210 / 101016.0 -0.6-0.6-1.6
2015-Jul-01 10:00N 79°30' E 000°42'3 1.6 230 / 101016.2 -0.4-0.4-1.6
2015-Jul-01 08:00N 79°30' E 001°00'8 8.1 210 / 141016.1 0.2 0.2-0.9
2015-Jul-01 07:00N 79°24' E 001°30'7 6.6 200 / 141016.4 -0.0-0.0-0.8
2015-Jul-01 06:00N 79°24' E 002°06'4 4.4 220 / 141017.0 5.4 -0.0-0.0-1.0
2015-Jul-01 05:00N 79°24' E 002°30'9 9.0 220 / 251017.1 0.8-0.2-0.2
2015-Jul-01 04:00N 79°18' E 003°06'8 7.8 220 / 211017.1 0.1 0.1 2.5
2015-Jul-01 03:00N 79°18' E 003°48'10 9.9 210 / 171017.5 1.3 0.9 0.4
2015-Jul-01 02:00N 79°12' E 004°30'2 2.2 220 / 171018.2 1.3 0.6 2.2
2015-Jul-01 01:00N 79°12' E 004°42'0 0.0 230 / 211018.4 2.2 1.1 5.7
2015-Jul-01 00:00N 79°12' E 004°42'0 0.0 230 / 191018.5 2.4 0.8 5.8
2015-Jun-30 23:00N 79°12' E 004°42'0 0.0 220 / 211018.6 3.6 1.1 5.8
2015-Jun-30 22:00N 79°12' E 004°42'1 1.1 210 / 211018.7 3.8 1.4 5.8
2015-Jun-30 21:00N 79°12' E 004°36'8 8.2 210 / 191018.4 3.8 0.9 6.0
2015-Jun-30 20:00N 79°06' E 005°06'2110.4 220 / 161019.1 3.3 0.5 6.1
2015-Jun-30 18:00N 78°48' E 006°00'0 0.0 280 / 81020.227.0 0.5 3.3-0.4 5.9
2015-Jun-30 17:00N 78°48' E 006°00'0 0.0 300 / 101020.1 2.8-1.5 6.1
2015-Jun-30 16:00N 78°48' E 006°00'0 0.0 310 / 101020.2 2.7-0.2 6.1
2015-Jun-30 15:00N 78°48' E 006°00'1 1.2 310 / 101020.3 2.7 0.8 6.0
2015-Jun-30 14:00N 78°48' E 006°06'1010.5 320 / 101019.9 2.4 1.1 6.1
2015-Jun-30 13:00N 78°48' E 007°00'0 0.0 350 / 101019.7 2.0 0.5 6.0
2015-Jun-30 12:00N 78°48' E 007°00'6 5.8 340 / 121019.710.8 0.5 2.1 1.2 6.4
2015-Jun-30 11:00N 78°48' E 007°30'6 5.8 340 / 141019.1 2.2 0.9 6.4
2015-Jun-30 10:00N 78°48' E 008°00'0 0.0 340 / 161019.1 2.9 1.5 6.4
2015-Jun-30 09:00N 78°48' E 008°00'8 8.2 350 / 141019.010.8 1.0 2.7 1.5 6.4
2015-Jun-30 08:00N 78°48' E 008°42'0 0.0 350 / 171018.5 2.3 1.0 5.4
2015-Jun-30 07:00N 78°48' E 008°42'0 0.0 340 / 171018.3 2.4 1.2 5.4
2015-Jun-30 06:00N 78°48' E 008°42'26 4.4 340 / 191017.910.8 1.0 2.5 1.2 5.6
2015-Jun-30 00:00N 78°54' E 006°30'9 9.2 350 / 141019.9 0.6-0.6 5.8
2015-Jun-29 23:00N 78°54' E 007°18'1111.1 340 / 141019.5 1.3-0.8 5.7
2015-Jun-29 22:00N 78°48' E 008°06'18 8.8 340 / 161019.1 2.2-0.9 6.4
2015-Jun-29 20:00N 78°36' E 009°12'1313.4 360 / 141018.7 3.1-0.5 5.9
2015-Jun-29 19:00N 78°24' E 009°42'17 8.5 340 / 121018.6 3.7 0.4 5.6
2015-Jun-29 17:00N 78°12' E 010°42'1413.5 340 / 81018.6 3.6-0.3 5.7
2015-Jun-29 16:00N 78°00' E 011°12'20 9.8 310 / 81018.8 3.7-2.5 6.2
2015-Jun-29 14:00N 78°06' E 012°42'10 9.9 280 / 61018.7 3.4-2.4 4.6
2015-Jun-29 13:00N 78°06' E 013°30'1110.5 100 / 61018.7 3.3-1.5 4.4
2015-Jun-29 12:00N 78°12' E 014°12'10 9.8 020 / 41018.510.8 3.0-2.2 5.0
2015-Jun-29 11:00N 78°12' E 015°00'7 7.4 350 / 41018.4 2.7-3.1 4.8
2015-Jun-29 10:00N 78°12' E 015°36'0 0.0 330 / 41018.2 3.0-4.5 3.1
2015-Jun-29 09:00N 78°12' E 015°36'0 0.0 130 / 41018.110.8 2.8-4.3 2.9
2015-Jun-29 08:00N 78°12' E 015°36'0 0.0 130 / 81017.9 2.7-4.9 3.1
2015-Jun-29 06:00N 78°12' E 015°36'0 0.0 130 / 161017.610.8 0.5 2.1-4.9 3.2
2015-Jun-29 05:00N 78°12' E 015°36'0 0.0 130 / 171017.5 2.1-4.2 3.3
2015-Jun-29 04:00N 78°12' E 015°36'0 0.0 140 / 161017.5 2.2-3.5 3.2
2015-Jun-29 03:00N 78°12' E 015°36'0 0.0 140 / 141017.7 2.1-3.6 3.4
2015-Jun-29 02:00N 78°12' E 015°36'0 0.0 140 / 141017.8 2.0-3.7 3.6
2015-Jun-29 01:00N 78°12' E 015°36'0 0.0 140 / 161017.8 1.9-3.8 3.6
2015-Jun-29 00:00N 78°12' E 015°36'0 0.0 140 / 141017.8 2.1-3.6 3.7
2015-Jun-28 23:00N 78°12' E 015°36'0 0.0 140 / 161017.9 2.2-3.8 3.7
2015-Jun-28 22:00N 78°12' E 015°36'0 0.0 130 / 161017.5 2.4-3.6 3.7
2015-Jun-28 21:00N 78°12' E 015°36'0 0.0 120 / 171017.4 2.7-4.8 3.7
2015-Jun-28 20:00N 78°12' E 015°36'0 0.0 140 / 161017.4 2.5-3.4 4.0
2015-Jun-28 19:00N 78°12' E 015°36'0 0.0 140 / 141017.2 2.4-3.0 3.9
2015-Jun-28 18:00N 78°12' E 015°36'0 0.0 150 / 141017.0 2.9-3.4 4.2
2015-Jun-28 17:00N 78°12' E 015°36'0 0.0 140 / 171016.7 3.0-2.8 4.2
2015-Jun-28 16:00N 78°12' E 015°36'0 0.0 140 / 161016.6 3.4-2.9 4.0
2015-Jun-28 15:00N 78°12' E 015°36'0 0.0 140 / 161016.4 3.6-3.0 4.0
2015-Jun-28 14:00N 78°12' E 015°36'0 0.0 140 / 161016.3 3.7-2.9 4.1
2015-Jun-28 13:00N 78°12' E 015°36'0 0.0 140 / 171016.0 3.6-2.2 4.0
2015-Jun-28 12:00N 78°12' E 015°36'0 0.0 140 / 191015.710.8 0.5 3.4-2.1 3.9
2015-Jun-28 11:00N 78°12' E 015°36'0 0.0 140 / 171015.5 3.5-2.1 4.0
2015-Jun-28 10:00N 78°12' E 015°36'0 0.0 140 / 171015.2 3.4-2.0 4.0
2015-Jun-28 09:00N 78°12' E 015°36'0 0.0 140 / 191014.910.8 0.5 3.3-1.9 4.0
2015-Jun-28 08:00N 78°12' E 015°36'0 0.0 140 / 171014.4 3.3-1.7 4.0
2015-Jun-28 07:00N 78°12' E 015°36'0 0.0 140 / 171014.2 3.4-1.8 4.2
2015-Jun-28 06:00N 78°12' E 015°36'7 7.4 140 / 191013.610.8 0.5 3.5-1.3 4.2
2015-Jun-28 05:00N 78°12' E 015°00'6 6.1 080 / 161013.3 4.0-0.8 4.9
2015-Jun-28 04:00N 78°12' E 014°30'6 6.1 040 / 161012.7 3.9-0.3 5.2
2015-Jun-28 03:00N 78°12' E 014°00'8 7.8 040 / 191012.4 4.0 0.4 4.1
2015-Jun-28 02:00N 78°06' E 013°36'7 7.4 040 / 211012.1 3.7 1.1 4.3
2015-Jun-28 01:00N 78°06' E 013°00'9 8.6 060 / 121012.1 3.9 1.9 5.5
2015-Jun-28 00:00N 78°00' E 012°30'7 7.5 120 / 61012.2 3.8 1.7 5.5
2015-Jun-27 23:00N 78°00' E 011°54'10 9.6 020 / 61011.8 4.0 2.5 5.7
2015-Jun-27 22:00N 78°06' E 011°18'6 6.2 030 / 41011.8 4.1 1.9 5.8
2015-Jun-27 21:00N 78°06' E 010°48'7 7.4 090 / 41011.5 4.1 2.0 6.0
2015-Jun-27 20:00N 78°06' E 010°12'10 9.5 360 / 121011.3 4.4 3.1 5.9
2015-Jun-27 19:00N 78°12' E 009°36'6 6.0 360 / 101011.4 5.4 3.5 6.0
2015-Jun-27 18:00N 78°18' E 009°36'6 6.1 340 / 101011.510.8 0.5 3.9 1.7 5.0
2015-Jun-27 17:00N 78°24' E 009°30'6 6.0 340 / 101011.4 3.5 1.1 4.7
2015-Jun-27 16:00N 78°30' E 009°30'1212.1 340 / 81011.5 3.3 0.3 6.3
2015-Jun-27 15:00N 78°42' E 009°24'6 6.0 340 / 61011.5 3.1 0.4 6.1
2015-Jun-27 14:00N 78°48' E 009°24'6 6.1 360 / 61011.5 3.2 0.9 5.5
2015-Jun-27 13:00N 78°54' E 009°18'6 6.0 320 / 61011.5 2.4 1.0 6.3
2015-Jun-27 12:00N 79°00' E 009°18'6 6.1 290 / 101011.3 2.2 2.1 2.0 5.6
2015-Jun-27 11:00N 79°06' E 009°12'24 8.0 300 / 81011.2 2.5 2.3 5.5
2015-Jun-27 08:00N 79°30' E 009°00'20 6.8 340 / 101010.9 2.9 2.2 5.2
2015-Jun-27 05:00N 79°48' E 009°54'2211.0 090 / 81011.3 3.4 1.9 6.2
2015-Jun-27 03:00N 80°06' E 011°06'1 1.0 100 / 101012.3 1.6 0.6 5.8
2015-Jun-27 02:00N 80°06' E 011°12'8 7.9 100 / 101012.7 1.6 0.8 5.7
2015-Jun-27 01:00N 80°00' E 010°42'2 1.0 100 / 81012.7 2.1 0.4 5.7
2015-Jun-26 23:00N 80°00' E 010°30'9 4.3 080 / 61013.1 2.3 1.3 5.7
2015-Jun-26 21:00N 80°06' E 011°06'7 7.3 050 / 61013.3 1.1-0.1 5.6
2015-Jun-26 20:00N 80°00' E 010°42'8 8.0 070 / 61013.5 2.0 0.4 5.9
2015-Jun-26 19:00N 79°54' E 010°12'6 6.4 060 / 41013.4 2.4 0.5 5.9
2015-Jun-26 18:00N 80°00' E 010°24'8 7.9 100 / 41013.710.8 2.1 0.5 5.8
2015-Jun-26 17:00N 80°06' E 010°54'2 2.1 090 / 41014.2 1.3 0.2 6.0
2015-Jun-26 16:00N 80°06' E 011°06'10 5.1 070 / 61014.5 0.8-0.4 5.4
2015-Jun-26 14:00N 80°00' E 010°18'7 7.3 050 / 61014.6 1.6 0.3 5.6
2015-Jun-26 13:00N 79°54' E 009°54'6 6.1 080 / 61014.7 2.0 0.8 5.5
2015-Jun-26 12:00N 80°00' E 010°00'1 1.0 060 / 61014.910.8 2.0 0.5 5.8
2015-Jun-26 11:00N 80°00' E 010°06'2 2.1 060 / 81014.8 1.4-0.1 5.4
2015-Jun-26 10:00N 80°00' E 009°54'9 9.4 070 / 61015.1 1.4 0.1 5.6
2015-Jun-26 09:00N 80°06' E 010°36'10 5.1 070 / 61014.910.8 0.9-0.2 5.5
2015-Jun-26 07:00N 80°00' E 009°48'6 6.1 080 / 81014.7 2.5-0.5 5.4
2015-Jun-26 06:00N 80°06' E 009°54'6 6.2 100 / 41015.010.8 2.6-0.4 5.3
2015-Jun-26 05:00N 80°06' E 010°30'0 0.0 100 / 61015.0 2.1-0.2 5.2
2015-Jun-26 04:00N 80°06' E 010°30'7 7.2 100 / 61014.6 2.1 0.1 5.6
2015-Jun-26 03:00N 80°06' E 009°48'5 5.2 100 / 81014.5 3.0-0.2 5.5
2015-Jun-26 02:00N 80°06' E 009°18'7 7.2 150 / 41014.8 3.2-0.1 5.4
2015-Jun-26 01:00N 80°06' E 010°00'9 9.4 110 / 61014.9 3.3 0.2 5.5
2015-Jun-26 00:00N 80°12' E 010°42'7 7.2 090 / 61015.2 2.7 0.4 5.1
2015-Jun-25 23:00N 80°18' E 010°18'7 7.1 090 / 81015.2 2.8 0.1 3.4
2015-Jun-25 22:00N 80°18' E 009°36'3 3.0 100 / 101015.4 2.8 0.4 1.8
2015-Jun-25 21:00N 80°18' E 009°54'6 6.1 110 / 81015.4 2.6 0.7 4.4
2015-Jun-25 20:00N 80°18' E 010°30'7 7.1 090 / 101015.5 3.1 1.0 5.5
2015-Jun-25 19:00N 80°18' E 009°48'7 7.1 060 / 101015.7 1.6 1.0 4.6
2015-Jun-25 18:00N 80°18' E 009°06'6 6.1 080 / 121015.810.8 0.7-0.2 2.8
2015-Jun-25 17:00N 80°12' E 009°00'4 2.0 110 / 81016.2 1.8 0.6 0.4
2015-Jun-25 15:00N 80°12' E 008°36'2 2.0 080 / 81016.310.8 2.2 1.5-0.5
2015-Jun-25 14:00N 80°12' E 008°24'13 6.3 090 / 81016.5 2.1 2.0-0.3
2015-Jun-25 12:00N 80°18' E 009°30'6 6.1 110 / 81016.6 1.1 1.9 1.8 1.5
2015-Jun-25 11:00N 80°12' E 009°36'5 5.1 100 / 81016.6 2.0 2.0 0.5
2015-Jun-25 10:00N 80°12' E 009°06'8 7.9 060 / 61016.6 1.7 1.7 1.8
2015-Jun-25 09:00N 80°06' E 008°36'9 4.3 050 / 81016.6 5.4 1.4 1.3-0.4
2015-Jun-25 07:00N 80°12' E 009°12'6 6.1 070 / 61016.5 2.0 1.7 2.3
2015-Jun-25 06:00N 80°12' E 009°48'1 1.0 040 / 21016.7 1.1 2.0 1.5 1.8
2015-Jun-25 05:00N 80°12' E 009°54'7 7.1 310 / 21016.7 2.4 1.5 2.2
2015-Jun-25 04:00N 80°12' E 009°12'9 9.4 010 1017.0 1.6 0.3 3.4
2015-Jun-25 03:00N 80°06' E 008°30'20 5.1 040 / 81017.0 0.1-0.0 3.1
2015-Jun-24 23:00N 80°12' E 010°24'9 9.4 050 / 81017.8 2.4 2.1 4.4
2015-Jun-24 22:00N 80°06' E 009°42'7 7.2 030 / 101017.8 0.9 0.8 3.3
2015-Jun-24 21:00N 80°06' E 009°00'9 9.4 020 / 121018.0 -0.0-0.0 5.0
2015-Jun-24 20:00N 80°00' E 008°18'6 6.3 010 / 101018.2 -0.6-0.9 4.7
2015-Jun-24 19:00N 80°00' E 007°42'1 1.0 010 / 81018.4 -0.9-0.9 5.2
2015-Jun-24 18:00N 80°00' E 007°48'7 7.3 050 / 81018.3 0.3 -0.4-0.4 4.7
2015-Jun-24 17:00N 80°00' E 008°30'9 8.6 010 / 81018.6 -0.3-0.4 5.4
2015-Jun-24 16:00N 80°06' E 009°06'15 7.3 020 / 101018.5 -0.1-0.6 4.7
2015-Jun-24 14:00N 80°12' E 010°24'6 6.1 020 / 81019.1 0.9 0.4 4.6
2015-Jun-24 13:00N 80°12' E 011°00'19 9.6 020 / 81019.1 0.8 0.5 5.2
2015-Jun-24 11:00N 80°18' E 009°12'12 6.1 050 / 61019.6 -1.4-1.4 3.1
2015-Jun-24 09:00N 80°30' E 009°00'6 6.1 280 / 21019.510.8 -1.6-3.5-1.3
2015-Jun-24 08:00N 80°36' E 009°06'1 1.0 310 / 21019.3 -1.7-3.9-1.5
2015-Jun-24 07:00N 80°36' E 009°00'1 1.0 330 / 21019.3 -1.8-4.0-1.1
2015-Jun-24 06:00N 80°36' E 008°54'6 6.3 240 / 41019.210.8 -2.1-4.3-1.6
2015-Jun-24 05:00N 80°42' E 008°42'3 2.9 270 / 21019.3 -1.7-4.5-1.6
2015-Jun-24 04:00N 80°42' E 008°24'1 1.0 240 / 41019.0 -1.8-4.0-1.6
2015-Jun-24 03:00N 80°42' E 008°30'6 6.1 200 / 41019.0 -1.9-2.8-1.6
2015-Jun-24 02:00N 80°48' E 008°36'1 1.0 270 / 41019.0 -1.8-3.5-1.6
2015-Jun-24 01:00N 80°48' E 008°42'1 1.0 240 / 41019.0 -2.1-3.1-1.6
2015-Jun-24 00:00N 80°48' E 008°48'6 6.3 250 / 81018.9 -1.8-3.4-1.6
2015-Jun-23 23:00N 80°54' E 008°36'2 1.9 260 / 61018.9 -1.5-2.9-1.7
2015-Jun-23 22:00N 80°54' E 008°24'0 0.0 230 / 61018.6 -1.6-2.5-1.7
2015-Jun-23 21:00N 80°54' E 008°24'6 6.0 240 / 81018.1 -0.9-3.2-1.7
2015-Jun-23 20:00N 81°00' E 008°24'0 0.0 240 / 81018.0 -1.0-1.9-1.7
2015-Jun-23 19:00N 81°00' E 008°24'1 0.5 240 / 81017.8 -1.0-1.4-1.7
2015-Jun-23 17:00N 81°00' E 008°18'0 0.0 220 / 141017.4 -0.4-0.5-1.7
2015-Jun-23 16:00N 81°00' E 008°18'0 0.0 210 / 121017.3 0.1-0.4-1.7
2015-Jun-23 15:00N 81°00' E 008°18'0 0.0 210 / 141017.7 5.4 0.2-0.0-1.6
2015-Jun-23 14:00N 81°00' E 008°18'0 0.0 210 / 101017.9 0.5 0.3-1.7
2015-Jun-23 13:00N 81°00' E 008°18'1 0.9 210 / 141018.2 0.7 0.7-1.7
2015-Jun-23 12:00N 81°00' E 008°12'0 0.0 180 / 141018.5 5.4 1.0 0.9-1.7
2015-Jun-23 11:00N 81°00' E 008°12'0 0.0 190 / 141018.8 1.1 0.8-1.6
2015-Jun-23 10:00N 81°00' E 008°12'1 0.9 180 / 141018.8 0.9 0.7-1.7
2015-Jun-23 09:00N 81°00' E 008°06'6 3.0 180 / 141019.010.8 0.8 0.4-1.7
2015-Jun-23 07:00N 81°06' E 008°06'0 0.0 210 / 121019.3 -0.1-0.1-1.8
2015-Jun-23 06:00N 81°06' E 008°06'1 0.9 230 / 141019.210.8 -0.1-0.1-1.7
2015-Jun-23 05:00N 81°06' E 008°00'1 0.9 200 / 141019.3 -0.6-0.6-1.8
2015-Jun-23 04:00N 81°06' E 007°54'0 0.0 200 / 161019.6 -0.3-0.3-1.7
2015-Jun-23 03:00N 81°06' E 007°54'1 0.9 190 / 141019.7 0.2 0.2-1.8
2015-Jun-23 02:00N 81°06' E 008°00'   200 / 161020.5 0.8 0.8-1.8

Dump ship's entire track history